PWSweather.com
Personal Weather Stations
Station Observations
ME1989
Sicily, Barcellona Pozzo Di GottoIT

SicilyBarcellona Pozzo Di GottoIT

Lat: 38.1487398, Lon: 15.2113962

Elevation: 131

Station Type: Peet Bros

Latest ConditionsUpdated 3:20:06 PM GMT+01:01 Saturday, Apr 19, 2014
Currently Today's Max Today's Min Today's Average
Temperature 66.7°F19.3°C 67.3°F19.6°C 52.6°F11.4°C 59.1°F15.1°C
Dew Point 41.6°F5.3°C 50.3°F10.2°C 33.5°F0.8°C 43.4°F6.3°C
Winds 6.4 mph ENE10.3 kmh ENE 8.2 mph NNW13.2 kmh NNW - 3.7 mph 6.0 kmh
Wind Gusts 8.3 mph13.4 kmh 12.3 mph19.8 kmh - -
Humidity 40% 78% 31% 59%
Pressure 29.83 in1010.2 mb 29.89 in1012.2 mb 29.83 in1010.2 mb -
Hour Temp Dew Point Humidity Winds Wind Gusts Pressure Precip Precip Rate Daily Precip Total
03:20 PM 66.7°F19.3°C 41.6°F5.3°C 40% 6.4 mph ENE10.3 kmh ENE 8.3 mph13.4 kmh 29.83 in1010.2 mb 0.00 in0.0 mm 0.00 in/hr0.0 mm/hr 0.00 in0.0 mm
03:10 PM 67.3°F19.6°C 42.8°F6.0°C 41% 4.2 mph NE6.8 kmh NE 7.8 mph12.6 kmh 29.83 in1010.2 mb 0.00 in0.0 mm 0.00 in/hr0.0 mm/hr 0.00 in0.0 mm
03:00 PM 67.1°F19.5°C 43.2°F6.2°C 42% 3.0 mph NE4.8 kmh NE 6.8 mph10.9 kmh 29.83 in1010.2 mb 0.00 in0.0 mm 0.00 in/hr0.0 mm/hr 0.00 in0.0 mm
02:50 PM 66.7°F19.3°C 42.3°F5.7°C 41% 0.1 mph SE0.2 kmh SE 3.4 mph5.5 kmh 29.84 in1010.5 mb 0.00 in0.0 mm 0.00 in/hr0.0 mm/hr 0.00 in0.0 mm
02:40 PM 66.4°F19.1°C 40.0°F4.4°C 38% 3.3 mph NNW5.3 kmh NNW 6.0 mph9.7 kmh 29.85 in1010.8 mb 0.00 in0.0 mm 0.00 in/hr0.0 mm/hr 0.00 in0.0 mm
02:30 PM 66.3°F19.1°C 39.9°F4.4°C 38% 2.5 mph N4.0 kmh N 5.8 mph9.3 kmh 29.86 in1011.2 mb 0.00 in0.0 mm 0.00 in/hr0.0 mm/hr 0.00 in0.0 mm
02:20 PM 66.2°F19.0°C 38.5°F3.6°C 36% 5.5 mph N8.9 kmh N 5.6 mph9.0 kmh 29.86 in1011.2 mb 0.00 in0.0 mm 0.00 in/hr0.0 mm/hr 0.00 in0.0 mm
02:10 PM 65.9°F18.8°C 38.9°F3.8°C 37% 4.0 mph NW6.4 kmh NW 7.0 mph11.3 kmh 29.86 in1011.2 mb 0.00 in0.0 mm 0.00 in/hr0.0 mm/hr 0.00 in0.0 mm
02:00 PM 66.3°F19.1°C 39.2°F4.0°C 37% 5.8 mph N9.3 kmh N 9.1 mph14.6 kmh 29.87 in1011.5 mb 0.00 in0.0 mm 0.00 in/hr0.0 mm/hr 0.00 in0.0 mm
01:50 PM 67.1°F19.5°C 40.6°F4.8°C 38% 3.7 mph NW6.0 kmh NW 12.3 mph19.8 kmh 29.86 in1011.2 mb 0.00 in0.0 mm 0.00 in/hr0.0 mm/hr 0.00 in0.0 mm
01:40 PM 66.3°F19.1°C 41.2°F5.1°C 40% 4.8 mph NE7.7 kmh NE 6.5 mph10.5 kmh 29.86 in1011.2 mb 0.00 in0.0 mm 0.00 in/hr0.0 mm/hr 0.00 in0.0 mm
01:30 PM 66.8°F19.3°C 41.7°F5.4°C 40% 0.6 mph N1.0 kmh N 6.9 mph11.1 kmh 29.86 in1011.2 mb 0.00 in0.0 mm 0.00 in/hr0.0 mm/hr 0.00 in0.0 mm
01:20 PM 66.4°F19.1°C 41.3°F5.2°C 40% 5.2 mph N8.4 kmh N 6.1 mph9.8 kmh 29.86 in1011.2 mb 0.00 in0.0 mm 0.00 in/hr0.0 mm/hr 0.00 in0.0 mm
01:10 PM 66.1°F18.9°C 39.8°F4.3°C 38% 5.0 mph N8.0 kmh N 4.9 mph7.9 kmh 29.86 in1011.2 mb 0.00 in0.0 mm 0.00 in/hr0.0 mm/hr 0.00 in0.0 mm
01:00 PM 66.2°F19.0°C 36.2°F2.3°C 33% 6.2 mph NW10.0 kmh NW 8.3 mph13.4 kmh 29.87 in1011.5 mb 0.00 in0.0 mm 0.00 in/hr0.0 mm/hr 0.00 in0.0 mm
12:50 PM 65.6°F18.7°C 35.7°F2.1°C 33% 7.5 mph NNW12.1 kmh NNW 8.5 mph13.7 kmh 29.87 in1011.5 mb 0.00 in0.0 mm 0.00 in/hr0.0 mm/hr 0.00 in0.0 mm
12:40 PM 66.0°F18.9°C 37.5°F3.1°C 35% 8.2 mph NNW13.2 kmh NNW 9.5 mph15.3 kmh 29.87 in1011.5 mb 0.00 in0.0 mm 0.00 in/hr0.0 mm/hr 0.00 in0.0 mm
12:30 PM 65.8°F18.8°C 38.0°F3.3°C 36% 4.2 mph NW6.8 kmh NW 6.8 mph10.9 kmh 29.88 in1011.9 mb 0.00 in0.0 mm 0.00 in/hr0.0 mm/hr 0.00 in0.0 mm
12:20 PM 65.5°F18.6°C 36.4°F2.4°C 34% Calm Calm -- 29.87 in1011.5 mb 0.00 in0.0 mm 0.00 in/hr0.0 mm/hr 0.00 in0.0 mm
12:10 PM 65.5°F18.6°C 37.8°F3.2°C 36% 3.8 mph NW6.1 kmh NW 5.8 mph9.3 kmh 29.88 in1011.9 mb 0.00 in0.0 mm 0.00 in/hr0.0 mm/hr 0.00 in0.0 mm
12:00 PM 65.2°F18.4°C 36.8°F2.7°C 35% Calm Calm -- 29.88 in1011.9 mb 0.00 in0.0 mm 0.00 in/hr0.0 mm/hr 0.00 in0.0 mm
11:50 AM 64.8°F18.2°C 33.5°F0.8°C 31% 0.5 mph NNE0.8 kmh NNE -- 29.88 in1011.9 mb 0.00 in0.0 mm 0.00 in/hr0.0 mm/hr 0.00 in0.0 mm
11:40 AM 65.3°F18.5°C 37.7°F3.2°C 36% 4.2 mph N6.8 kmh N 6.7 mph10.8 kmh 29.88 in1011.9 mb 0.00 in0.0 mm 0.00 in/hr0.0 mm/hr 0.00 in0.0 mm
11:30 AM 64.4°F18.0°C 36.9°F2.7°C 36% 5.3 mph N8.5 kmh N 6.9 mph11.1 kmh 29.88 in1011.9 mb 0.00 in0.0 mm 0.00 in/hr0.0 mm/hr 0.00 in0.0 mm
11:20 AM 64.7°F18.2°C 37.8°F3.2°C 37% 3.7 mph NW6.0 kmh NW 7.5 mph12.1 kmh 29.88 in1011.9 mb 0.00 in0.0 mm 0.00 in/hr0.0 mm/hr 0.00 in0.0 mm
11:10 AM 64.8°F18.2°C 35.8°F2.1°C 34% 4.1 mph N6.6 kmh N 8.0 mph12.9 kmh 29.88 in1011.9 mb 0.00 in0.0 mm 0.00 in/hr0.0 mm/hr 0.00 in0.0 mm
11:00 AM 64.6°F18.1°C 35.5°F1.9°C 34% 6.6 mph NNW10.6 kmh NNW 8.1 mph13.0 kmh 29.88 in1011.9 mb 0.00 in0.0 mm 0.00 in/hr0.0 mm/hr 0.00 in0.0 mm
10:50 AM 64.7°F18.2°C 38.5°F3.6°C 38% 4.1 mph NW6.6 kmh NW 7.2 mph11.6 kmh 29.88 in1011.9 mb 0.00 in0.0 mm 0.00 in/hr0.0 mm/hr 0.00 in0.0 mm
10:40 AM 64.1°F17.8°C 38.0°F3.3°C 38% 4.7 mph N7.6 kmh N 5.4 mph8.7 kmh 29.88 in1011.9 mb 0.00 in0.0 mm 0.00 in/hr0.0 mm/hr 0.00 in0.0 mm
10:30 AM 64.2°F17.9°C 39.3°F4.1°C 40% 1.8 mph N2.9 kmh N 5.4 mph8.7 kmh 29.88 in1011.9 mb 0.00 in0.0 mm 0.00 in/hr0.0 mm/hr 0.00 in0.0 mm
10:20 AM 63.3°F17.4°C 38.5°F3.6°C 40% 6.7 mph N10.8 kmh N 7.1 mph11.4 kmh 29.89 in1012.2 mb 0.00 in0.0 mm 0.00 in/hr0.0 mm/hr 0.00 in0.0 mm
10:10 AM 63.5°F17.5°C 41.8°F5.4°C 45% 5.2 mph NNW8.4 kmh NNW 7.3 mph11.7 kmh 29.89 in1012.2 mb 0.00 in0.0 mm 0.00 in/hr0.0 mm/hr 0.00 in0.0 mm
10:00 AM 62.8°F17.1°C 42.3°F5.7°C 47% 5.1 mph NW8.2 kmh NW 7.5 mph12.1 kmh 29.89 in1012.2 mb 0.00 in0.0 mm 0.00 in/hr0.0 mm/hr 0.00 in0.0 mm
09:50 AM 62.8°F17.1°C 42.8°F6.0°C 48% 0.5 mph WSW0.8 kmh WSW 1.4 mph2.3 kmh 29.89 in1012.2 mb 0.00 in0.0 mm 0.00 in/hr0.0 mm/hr 0.00 in0.0 mm
09:40 AM 61.6°F16.4°C 41.7°F5.4°C 48% 6.5 mph WNW10.5 kmh WNW 8.6 mph13.8 kmh 29.89 in1012.2 mb 0.00 in0.0 mm 0.00 in/hr0.0 mm/hr 0.00 in0.0 mm
09:30 AM 61.8°F16.6°C 43.5°F6.4°C 51% 4.7 mph WNW7.6 kmh WNW 5.8 mph9.3 kmh 29.88 in1011.9 mb 0.00 in0.0 mm 0.00 in/hr0.0 mm/hr 0.00 in0.0 mm
09:20 AM 61.9°F16.6°C 45.0°F7.2°C 54% 5.0 mph NW8.0 kmh NW 7.4 mph11.9 kmh 29.88 in1011.9 mb 0.00 in0.0 mm 0.00 in/hr0.0 mm/hr 0.00 in0.0 mm
09:10 AM 62.3°F16.8°C 44.9°F7.2°C 53% 0.5 mph WNW0.8 kmh WNW 4.5 mph7.2 kmh 29.88 in1011.9 mb 0.00 in0.0 mm 0.00 in/hr0.0 mm/hr 0.00 in0.0 mm
09:00 AM 62.6°F17.0°C 44.7°F7.1°C 52% 4.3 mph NW6.9 kmh NW 4.8 mph7.7 kmh 29.88 in1011.9 mb 0.00 in0.0 mm 0.00 in/hr0.0 mm/hr 0.00 in0.0 mm
08:50 AM 62.4°F16.9°C 45.5°F7.5°C 54% 0.8 mph NE1.3 kmh NE 2.4 mph3.9 kmh 29.88 in1011.9 mb 0.00 in0.0 mm 0.00 in/hr0.0 mm/hr 0.00 in0.0 mm
08:40 AM 62.5°F16.9°C 45.6°F7.6°C 54% Calm Calm -- 29.87 in1011.5 mb 0.00 in0.0 mm 0.00 in/hr0.0 mm/hr 0.00 in0.0 mm
08:30 AM 61.5°F16.4°C 46.5°F8.1°C 58% Calm Calm -- 29.86 in1011.2 mb 0.00 in0.0 mm 0.00 in/hr0.0 mm/hr 0.00 in0.0 mm
08:20 AM 60.5°F15.8°C 46.1°F7.8°C 59% Calm Calm -- 29.87 in1011.5 mb 0.00 in0.0 mm 0.00 in/hr0.0 mm/hr 0.00 in0.0 mm
08:10 AM 60.0°F15.6°C 48.6°F9.2°C 66% Calm Calm -- 29.86 in1011.2 mb 0.00 in0.0 mm 0.00 in/hr0.0 mm/hr 0.00 in0.0 mm
08:00 AM 59.0°F15.0°C 48.1°F8.9°C 67% Calm Calm -- 29.86 in1011.2 mb 0.00 in0.0 mm 0.00 in/hr0.0 mm/hr 0.00 in0.0 mm
07:50 AM 58.4°F14.7°C 49.1°F9.5°C 71% Calm Calm -- 29.86 in1011.2 mb 0.00 in0.0 mm 0.00 in/hr0.0 mm/hr 0.00 in0.0 mm
07:40 AM 58.2°F14.6°C 50.3°F10.2°C 75% 3.1 mph SW5.0 kmh SW 4.4 mph7.1 kmh 29.86 in1011.2 mb 0.00 in0.0 mm 0.00 in/hr0.0 mm/hr 0.00 in0.0 mm
07:30 AM 57.4°F14.1°C 49.9°F9.9°C 76% 0.6 mph SW1.0 kmh SW 3.2 mph5.1 kmh 29.86 in1011.2 mb 0.00 in0.0 mm 0.00 in/hr0.0 mm/hr 0.00 in0.0 mm
07:20 AM 56.9°F13.8°C 49.4°F9.7°C 76% Calm Calm -- 29.86 in1011.2 mb 0.00 in0.0 mm 0.00 in/hr0.0 mm/hr 0.00 in0.0 mm
07:10 AM 56.1°F13.4°C 49.0°F9.4°C 77% 0.3 mph S0.5 kmh S -- 29.86 in1011.2 mb 0.00 in0.0 mm 0.00 in/hr0.0 mm/hr 0.00 in0.0 mm
07:00 AM 55.6°F13.1°C 48.8°F9.3°C 78% 3.4 mph S5.5 kmh S 4.8 mph7.7 kmh 29.86 in1011.2 mb 0.00 in0.0 mm 0.00 in/hr0.0 mm/hr 0.00 in0.0 mm
06:50 AM 55.1°F12.8°C 48.3°F9.1°C 78% 4.0 mph SSW6.4 kmh SSW 5.0 mph8.0 kmh 29.86 in1011.2 mb 0.00 in0.0 mm 0.00 in/hr0.0 mm/hr 0.00 in0.0 mm
06:40 AM 54.7°F12.6°C 47.9°F8.8°C 78% 3.3 mph SSW5.3 kmh SSW 4.5 mph7.2 kmh 29.86 in1011.2 mb 0.00 in0.0 mm 0.00 in/hr0.0 mm/hr 0.00 in0.0 mm
06:30 AM 54.6°F12.6°C 47.5°F8.6°C 77% 4.9 mph S7.9 kmh S 6.5 mph10.5 kmh 29.86 in1011.2 mb 0.00 in0.0 mm 0.00 in/hr0.0 mm/hr 0.00 in0.0 mm
06:20 AM 54.3°F12.4°C 47.3°F8.5°C 77% 7.1 mph S11.4 kmh S 8.5 mph13.7 kmh 29.86 in1011.2 mb 0.00 in0.0 mm 0.00 in/hr0.0 mm/hr 0.00 in0.0 mm
06:10 AM 54.1°F12.3°C 47.4°F8.6°C 78% 5.7 mph S9.2 kmh S 7.2 mph11.6 kmh 29.86 in1011.2 mb 0.00 in0.0 mm 0.00 in/hr0.0 mm/hr 0.00 in0.0 mm
06:00 AM 53.9°F12.2°C 46.9°F8.3°C 77% 5.9 mph S9.5 kmh S 7.5 mph12.1 kmh 29.86 in1011.2 mb 0.00 in0.0 mm 0.00 in/hr0.0 mm/hr 0.00 in0.0 mm
05:50 AM 53.8°F12.1°C 47.1°F8.4°C 78% 4.5 mph S7.2 kmh S 5.9 mph9.5 kmh 29.85 in1010.8 mb 0.00 in0.0 mm 0.00 in/hr0.0 mm/hr 0.00 in0.0 mm
05:40 AM 53.6°F12.0°C 46.6°F8.1°C 77% 4.3 mph S6.9 kmh S 4.8 mph7.7 kmh 29.85 in1010.8 mb 0.00 in0.0 mm 0.00 in/hr0.0 mm/hr 0.00 in0.0 mm
05:30 AM 53.7°F12.1°C 46.6°F8.1°C 77% 4.1 mph S6.6 kmh S 6.5 mph10.5 kmh 29.85 in1010.8 mb 0.00 in0.0 mm 0.00 in/hr0.0 mm/hr 0.00 in0.0 mm
05:20 AM 53.9°F12.2°C 46.5°F8.1°C 76% 6.6 mph S10.6 kmh S 8.1 mph13.0 kmh 29.85 in1010.8 mb 0.00 in0.0 mm 0.00 in/hr0.0 mm/hr 0.00 in0.0 mm
05:10 AM 53.8°F12.1°C 46.4°F8.0°C 76% 5.3 mph S8.5 kmh S 6.0 mph9.7 kmh 29.85 in1010.8 mb 0.00 in0.0 mm 0.00 in/hr0.0 mm/hr 0.00 in0.0 mm
05:00 AM 53.7°F12.1°C 45.9°F7.7°C 75% 4.8 mph S7.7 kmh S 7.1 mph11.4 kmh 29.85 in1010.8 mb 0.00 in0.0 mm 0.00 in/hr0.0 mm/hr 0.00 in0.0 mm
04:50 AM 53.8°F12.1°C 46.1°F7.8°C 75% 4.1 mph S6.6 kmh S 4.9 mph7.9 kmh 29.86 in1011.2 mb 0.00 in0.0 mm 0.00 in/hr0.0 mm/hr 0.00 in0.0 mm
04:40 AM 53.9°F12.2°C 45.8°F7.7°C 74% 4.3 mph S6.9 kmh S 5.5 mph8.9 kmh 29.85 in1010.8 mb 0.00 in0.0 mm 0.00 in/hr0.0 mm/hr 0.00 in0.0 mm
04:30 AM 53.9°F12.2°C 45.8°F7.7°C 74% 4.7 mph S7.6 kmh S 7.4 mph11.9 kmh 29.86 in1011.2 mb 0.00 in0.0 mm 0.00 in/hr0.0 mm/hr 0.00 in0.0 mm
04:20 AM 54.0°F12.2°C 45.5°F7.5°C 73% 4.6 mph S7.4 kmh S 6.2 mph10.0 kmh 29.85 in1010.8 mb 0.00 in0.0 mm 0.00 in/hr0.0 mm/hr 0.00 in0.0 mm
04:10 AM 53.7°F12.1°C 45.2°F7.3°C 73% 6.3 mph SSW10.1 kmh SSW 9.3 mph15.0 kmh 29.85 in1010.8 mb 0.00 in0.0 mm 0.00 in/hr0.0 mm/hr 0.00 in0.0 mm
04:00 AM 53.4°F11.9°C 45.6°F7.6°C 75% 5.7 mph S9.2 kmh S 7.2 mph11.6 kmh 29.85 in1010.8 mb 0.00 in0.0 mm 0.00 in/hr0.0 mm/hr 0.00 in0.0 mm
03:50 AM 53.0°F11.7°C 46.0°F7.8°C 77% 4.3 mph S6.9 kmh S 5.7 mph9.2 kmh 29.85 in1010.8 mb 0.00 in0.0 mm 0.00 in/hr0.0 mm/hr 0.00 in0.0 mm
03:40 AM 52.9°F11.6°C 46.2°F7.9°C 78% 4.1 mph S6.6 kmh S 5.1 mph8.2 kmh 29.86 in1011.2 mb 0.00 in0.0 mm 0.00 in/hr0.0 mm/hr 0.00 in0.0 mm
03:30 AM 52.7°F11.5°C 46.0°F7.8°C 78% 4.3 mph S6.9 kmh S 6.3 mph10.1 kmh 29.86 in1011.2 mb 0.00 in0.0 mm 0.00 in/hr0.0 mm/hr 0.00 in0.0 mm
03:20 AM 52.6°F11.4°C 46.0°F7.8°C 78% 5.7 mph S9.2 kmh S 6.2 mph10.0 kmh 29.86 in1011.2 mb 0.00 in0.0 mm 0.00 in/hr0.0 mm/hr 0.00 in0.0 mm
03:10 AM 52.8°F11.6°C 46.1°F7.8°C 78% 4.5 mph S7.2 kmh S 6.5 mph10.5 kmh 29.86 in1011.2 mb 0.00 in0.0 mm 0.00 in/hr0.0 mm/hr 0.00 in0.0 mm
03:00 AM 52.7°F11.5°C 46.0°F7.8°C 78% 6.0 mph S9.7 kmh S 8.1 mph13.0 kmh 29.86 in1011.2 mb 0.00 in0.0 mm 0.00 in/hr0.0 mm/hr 0.00 in0.0 mm
02:50 AM 53.0°F11.7°C 46.0°F7.8°C 77% 5.3 mph S8.5 kmh S 5.4 mph8.7 kmh 29.86 in1011.2 mb 0.00 in0.0 mm 0.00 in/hr0.0 mm/hr 0.00 in0.0 mm
02:40 AM 52.9°F11.6°C 45.6°F7.6°C 76% 4.9 mph S7.9 kmh S 6.0 mph9.7 kmh 29.86 in1011.2 mb 0.00 in0.0 mm 0.00 in/hr0.0 mm/hr 0.00 in0.0 mm
02:30 AM 53.0°F11.7°C 45.7°F7.6°C 76% 4.2 mph S6.8 kmh S 4.8 mph7.7 kmh 29.86 in1011.2 mb 0.00 in0.0 mm 0.00 in/hr0.0 mm/hr 0.00 in0.0 mm
02:20 AM 53.2°F11.8°C 45.5°F7.5°C 75% 2.6 mph SSE4.2 kmh SSE 2.9 mph4.7 kmh 29.86 in1011.2 mb 0.00 in0.0 mm 0.00 in/hr0.0 mm/hr 0.00 in0.0 mm
02:10 AM 53.2°F11.8°C 45.2°F7.3°C 74% 3.9 mph S6.3 kmh S 4.8 mph7.7 kmh 29.85 in1010.8 mb 0.00 in0.0 mm 0.00 in/hr0.0 mm/hr 0.00 in0.0 mm
02:00 AM 52.9°F11.6°C 44.8°F7.1°C 74% 4.9 mph SSE7.9 kmh SSE 5.3 mph8.5 kmh 29.86 in1011.2 mb 0.00 in0.0 mm 0.00 in/hr0.0 mm/hr 0.00 in0.0 mm
01:50 AM 52.8°F11.6°C 44.4°F6.9°C 73% 5.1 mph S8.2 kmh S 5.5 mph8.9 kmh 29.86 in1011.2 mb 0.00 in0.0 mm 0.00 in/hr0.0 mm/hr 0.00 in0.0 mm
01:40 AM 53.3°F11.8°C 43.7°F6.5°C 70% Calm Calm -- 29.86 in1011.2 mb 0.00 in0.0 mm 0.00 in/hr0.0 mm/hr 0.00 in0.0 mm
01:30 AM 53.6°F12.0°C 44.0°F6.7°C 70% 1.8 mph S2.9 kmh S 1.6 mph2.6 kmh 29.86 in1011.2 mb 0.00 in0.0 mm 0.00 in/hr0.0 mm/hr 0.00 in0.0 mm
01:20 AM 53.5°F11.9°C 43.2°F6.2°C 68% 0.1 mph SE0.2 kmh SE 5.7 mph9.2 kmh 29.86 in1011.2 mb 0.00 in0.0 mm 0.00 in/hr0.0 mm/hr 0.00 in0.0 mm
01:10 AM 53.6°F12.0°C 42.9°F6.1°C 67% Calm Calm -- 29.86 in1011.2 mb 0.00 in0.0 mm 0.00 in/hr0.0 mm/hr 0.00 in0.0 mm
01:00 AM 53.6°F12.0°C 42.9°F6.1°C 67% Calm Calm -- 29.86 in1011.2 mb 0.00 in0.0 mm 0.00 in/hr0.0 mm/hr 0.00 in0.0 mm
12:50 AM 53.7°F12.1°C 42.6°F5.9°C 66% 5.1 mph S8.2 kmh S 5.8 mph9.3 kmh 29.86 in1011.2 mb 0.00 in0.0 mm 0.00 in/hr0.0 mm/hr 0.00 in0.0 mm
12:40 AM 53.7°F12.1°C 43.0°F6.1°C 67% 3.9 mph S6.3 kmh S 5.9 mph9.5 kmh 29.86 in1011.2 mb 0.00 in0.0 mm 0.00 in/hr0.0 mm/hr 0.00 in0.0 mm
12:30 AM 53.5°F11.9°C 43.2°F6.2°C 68% 4.4 mph S7.1 kmh S 6.5 mph10.5 kmh 29.86 in1011.2 mb 0.00 in0.0 mm 0.00 in/hr0.0 mm/hr 0.00 in0.0 mm
12:20 AM 53.5°F11.9°C 43.6°F6.4°C 69% 6.1 mph S9.8 kmh S 7.8 mph12.6 kmh 29.86 in1011.2 mb 0.00 in0.0 mm 0.00 in/hr0.0 mm/hr 0.00 in0.0 mm
12:10 AM 53.6°F12.0°C 43.3°F6.3°C 68% 6.0 mph SSW9.7 kmh SSW 7.5 mph12.1 kmh 29.86 in1011.2 mb 0.00 in0.0 mm 0.00 in/hr0.0 mm/hr 0.00 in0.0 mm
12:00 AM 53.9°F12.2°C 43.6°F6.4°C 68% Calm Calm -- 29.87 in1011.5 mb 0.00 in0.0 mm 0.00 in/hr0.0 mm/hr 0.00 in0.0 mm